Time;durP1;ratioP1;P1;durP2;ratioP2;P2;SDS_P1;SDS_P2;PMS_P1;PMS_P2;Temp;Humidity;BMP_temperature;BMP_pressure;BME280_temperature;BME280_humidity;BME280_pressure;Samples;Min_cycle;Max_cycle;Signal;HPM_P1;HPM_P2
2022/01/14 00:01:25;;;;;;;11.10;8.43;;;;;;;;;;4526726;28;20801;-62
2022/01/14 00:03:36;;;;;;;10.20;8.20;;;;;;;;;;4527668;28;20048;-62
2022/01/14 00:05:46;;;;;;;9.67;7.77;;;;;;;;;;4529633;28;20037;-62
2022/01/14 00:07:56;;;;;;;9.80;8.17;;;;;;;;;;4525441;28;20133;-64
2022/01/14 00:10:08;;;;;;;11.77;8.67;;;;;;;;;;4526553;28;28757;-63
2022/01/14 00:12:24;;;;;;;10.52;8.35;;;;;;;;;;4530177;28;20030;-63
2022/01/14 00:16:48;;;;;;;10.35;8.10;;;;;;;;;;4520587;28;20120;-62
2022/01/14 00:19:00;;;;;;;9.47;7.50;;;;;;;;;;4527710;28;20045;-63
2022/01/14 00:21:10;;;;;;;10.65;8.43;;;;;;;;;;4527726;28;20116;-62
2022/01/14 00:23:27;;;;;;;9.30;7.13;;;;;;;;;;4529191;28;20042;-62
2022/01/14 00:33:06;;;;;;;14.70;13.05;;;;;;;;;;4526578;28;20044;-63
2022/01/14 00:35:16;;;;;;;13.88;12.48;;;;;;;;;;4528039;28;20047;-63
2022/01/14 00:37:27;;;;;;;14.87;12.37;;;;;;;;;;4528278;28;32429;-63
2022/01/14 00:39:37;;;;;;;5.57;4.73;;;;;;;;;;4527769;28;20054;-63
2022/01/14 00:41:48;;;;;;;13.23;11.83;;;;;;;;;;4531656;28;20867;-63
2022/01/14 00:44:01;;;;;;;6.87;5.13;;;;;;;;;;4529514;28;20025;-63
2022/01/14 00:46:11;;;;;;;12.85;11.45;;;;;;;;;;4536817;28;20041;-63
2022/01/14 00:48:22;;;;;;;13.73;12.33;;;;;;;;;;4526185;28;20045;-63
2022/01/14 00:50:34;;;;;;;9.17;7.97;;;;;;;;;;4529195;28;20037;-63
2022/01/14 00:52:44;;;;;;;;;;;;;;;;;;4528871;28;20032;-63
2022/01/14 00:54:55;;;;;;;7.88;6.72;;;;;;;;;;4537023;28;20010;-63
2022/01/14 00:59:18;;;;;;;13.27;11.85;;;;;;;;;;4526227;28;20604;-63
2022/01/14 01:01:29;;;;;;;7.03;5.67;;;;;;;;;;4527044;28;20096;-63
2022/01/14 01:03:39;;;;;;;9.10;6.70;;;;;;;;;;4528138;28;27285;-63
2022/01/14 01:05:50;;;;;;;7.33;6.10;;;;;;;;;;4528661;28;20029;-63
2022/01/14 01:08:08;;;;;;;8.30;6.30;;;;;;;;;;4529523;28;20072;-63
2022/01/14 01:10:19;;;;;;;7.75;6.03;;;;;;;;;;4524982;28;21501;-63
2022/01/14 01:12:47;;;;;;;7.10;5.60;;;;;;;;;;4527926;28;20045;-63
2022/01/14 01:15:08;;;;;;;7.45;5.95;;;;;;;;;;4527044;28;20095;-63
2022/01/14 01:17:19;;;;;;;7.28;5.45;;;;;;;;;;4526227;28;20703;-63
2022/01/14 01:19:29;;;;;;;6.23;4.90;;;;;;;;;;4525673;28;20049;-63
2022/01/14 01:21:40;;;;;;;6.57;5.00;;;;;;;;;;4528231;28;20104;-63
2022/01/14 01:23:50;;;;;;;5.33;4.63;;;;;;;;;;4528528;28;20507;-63
2022/01/14 01:26:10;;;;;;;5.47;4.13;;;;;;;;;;4526146;28;24273;-64
2022/01/14 01:28:21;;;;;;;6.32;4.90;;;;;;;;;;4527888;28;20049;-63
2022/01/14 01:32:46;;;;;;;7.03;5.37;;;;;;;;;;4528462;28;20392;-63
2022/01/14 01:34:57;;;;;;;8.27;5.75;;;;;;;;;;4527224;28;20041;-63
2022/01/14 01:37:07;;;;;;;7.20;5.67;;;;;;;;;;4527921;28;20042;-63
2022/01/14 01:39:20;;;;;;;7.20;5.77;;;;;;;;;;4526841;28;20766;-63
2022/01/14 01:41:34;;;;;;;6.95;5.45;;;;;;;;;;4528430;28;20083;-63
2022/01/14 01:43:50;;;;;;;7.15;5.40;;;;;;;;;;4525918;28;20041;-63
2022/01/14 01:46:01;;;;;;;6.68;5.43;;;;;;;;;;4528234;28;20048;-63
2022/01/14 01:48:11;;;;;;;6.77;5.30;;;;;;;;;;4527101;28;20048;-63
2022/01/14 01:50:25;;;;;;;7.37;5.80;;;;;;;;;;4527945;28;20084;-62
2022/01/14 01:52:35;;;;;;;7.30;6.03;;;;;;;;;;4526821;28;20111;-63
2022/01/14 01:54:46;;;;;;;8.53;6.57;;;;;;;;;;4527545;28;20037;-63
2022/01/14 01:56:57;;;;;;;7.93;6.33;;;;;;;;;;4527226;28;20029;-63
2022/01/14 01:59:09;;;;;;;9.47;7.03;;;;;;;;;;4525661;28;20077;-63
2022/01/14 02:01:19;;;;;;;8.70;7.00;;;;;;;;;;4527467;28;20021;-63
2022/01/14 02:03:30;;;;;;;8.97;7.10;;;;;;;;;;4525812;28;20385;-63
2022/01/14 02:05:40;;;;;;;8.37;6.73;;;;;;;;;;4528007;28;20025;-63
2022/01/14 02:07:51;;;;;;;9.67;7.20;;;;;;;;;;4526987;28;27028;-63
2022/01/14 02:10:03;;;;;;;8.93;7.40;;;;;;;;;;4526822;28;20045;-63
2022/01/14 02:12:13;;;;;;;9.38;7.32;;;;;;;;;;4525973;28;20030;-63
2022/01/14 02:17:17;;;;;;;9.88;8.00;;;;;;;;;;4528374;28;20041;-63
2022/01/14 02:19:32;;;;;;;9.30;7.47;;;;;;;;;;4528429;28;20109;-65
2022/01/14 02:24:32;;;;;;;9.50;7.78;;;;;;;;;;4526197;28;20029;-63
2022/01/14 02:26:47;;;;;;;10.18;7.80;;;;;;;;;;4528099;28;20132;-63
2022/01/14 02:28:57;;;;;;;8.68;7.20;;;;;;;;;;4528390;28;20033;-63
2022/01/14 02:31:08;;;;;;;10.10;7.50;;;;;;;;;;4527448;28;20041;-63
2022/01/14 02:33:19;;;;;;;9.10;7.13;;;;;;;;;;4526066;28;20030;-63
2022/01/14 02:35:30;;;;;;;7.60;6.30;;;;;;;;;;4536047;28;20041;-63
2022/01/14 02:37:40;;;;;;;8.32;6.47;;;;;;;;;;4527638;28;20104;-63
2022/01/14 02:39:51;;;;;;;7.20;5.90;;;;;;;;;;4527066;28;20049;-63
2022/01/14 02:42:02;;;;;;;6.90;5.70;;;;;;;;;;4526760;28;20432;-63
2022/01/14 02:44:18;;;;;;;6.70;5.30;;;;;;;;;;4528279;28;20152;-63
2022/01/14 02:46:29;;;;;;;8.52;6.65;;;;;;;;;;4513788;28;20128;-63
2022/01/14 02:48:39;;;;;;;8.00;6.00;;;;;;;;;;4527149;28;20029;-63
2022/01/14 02:50:59;;;;;;;8.70;6.43;;;;;;;;;;4519203;28;20026;-63
2022/01/14 02:53:25;;;;;;;8.75;6.50;;;;;;;;;;4527453;28;20042;-64
2022/01/14 02:55:35;;;;;;;8.05;6.20;;;;;;;;;;4534828;28;20063;-63
2022/01/14 02:57:52;;;;;;;7.17;5.67;;;;;;;;;;4529180;28;20039;-63
2022/01/14 03:00:03;;;;;;;8.55;6.35;;;;;;;;;;4527818;28;20571;-65
2022/01/14 03:02:13;;;;;;;7.47;5.93;;;;;;;;;;4526635;28;20025;-63
2022/01/14 03:04:23;;;;;;;7.33;5.67;;;;;;;;;;4524936;28;20052;-63
2022/01/14 03:06:34;;;;;;;8.40;6.43;;;;;;;;;;4525782;28;20048;-63
2022/01/14 03:08:45;;;;;;;8.67;6.80;;;;;;;;;;4518533;28;24294;-63
2022/01/14 03:10:59;;;;;;;9.23;7.10;;;;;;;;;;4526194;28;20037;-63
2022/01/14 03:13:10;;;;;;;11.50;7.75;;;;;;;;;;4526492;28;20236;-63
2022/01/14 03:15:20;;;;;;;9.50;7.93;;;;;;;;;;4526077;28;20043;-63
2022/01/14 03:17:31;;;;;;;9.30;6.57;;;;;;;;;;4526053;28;26151;-63
2022/01/14 03:19:41;;;;;;;10.53;7.10;;;;;;;;;;4528164;28;20550;-64
2022/01/14 03:22:04;;;;;;;10.60;8.07;;;;;;;;;;4527215;28;26431;-63
2022/01/14 03:26:25;;;;;;;12.40;7.57;;;;;;;;;;4531300;28;20063;-63
2022/01/14 03:28:35;;;;;;;13.73;8.27;;;;;;;;;;4526924;28;20518;-64
2022/01/14 03:30:46;;;;;;;13.90;8.40;;;;;;;;;;4529441;28;34812;-63
2022/01/14 03:32:57;;;;;;;14.48;8.25;;;;;;;;;;4530000;28;20271;-63
2022/01/14 03:35:08;;;;;;;15.37;8.77;;;;;;;;;;4531297;28;20044;-63
2022/01/14 03:37:18;;;;;;;16.05;9.50;;;;;;;;;;4545485;28;20611;-63
2022/01/14 03:39:29;;;;;;;15.50;9.23;;;;;;;;;;4528975;28;20041;-63
2022/01/14 03:41:39;;;;;;;16.23;8.80;;;;;;;;;;4529303;28;28905;-64
2022/01/14 03:43:50;;;;;;;17.90;9.77;;;;;;;;;;4537596;28;20133;-63
2022/01/14 03:46:00;;;;;;;15.97;9.43;;;;;;;;;;4528522;28;20450;-63
2022/01/14 03:48:12;;;;;;;19.40;10.50;;;;;;;;;;4530895;28;20339;-63
2022/01/14 03:50:22;;;;;;;;;;;;;;;;;;4530022;28;20051;-63
2022/01/14 03:52:33;;;;;;;20.85;11.00;;;;;;;;;;4531120;28;19927;-63
2022/01/14 03:54:44;;;;;;;20.10;10.77;;;;;;;;;;4538036;28;20037;-63
2022/01/14 03:56:55;;;;;;;12.18;8.68;;;;;;;;;;4528850;28;20148;-63
2022/01/14 03:59:05;;;;;;;12.20;8.00;;;;;;;;;;4529612;28;24127;-63
2022/01/14 04:01:15;;;;;;;12.27;7.80;;;;;;;;;;4528914;28;20033;-63
2022/01/14 04:03:26;;;;;;;13.83;7.67;;;;;;;;;;4529834;28;29032;-63
2022/01/14 04:05:36;;;;;;;12.30;6.63;;;;;;;;;;4528864;28;20473;-63
2022/01/14 04:07:47;;;;;;;12.70;7.07;;;;;;;;;;4530774;28;20033;-63
2022/01/14 04:09:57;;;;;;;10.87;7.00;;;;;;;;;;4530331;28;20184;-63
2022/01/14 04:12:15;;;;;;;9.97;6.73;;;;;;;;;;4528509;28;20125;-63
2022/01/14 04:16:36;;;;;;;7.93;5.13;;;;;;;;;;4528952;28;20076;-63
2022/01/14 04:18:48;;;;;;;5.63;3.80;;;;;;;;;;4526838;28;20068;-63
2022/01/14 04:20:58;;;;;;;4.20;2.83;;;;;;;;;;4537920;28;20159;-63
2022/01/14 04:23:13;;;;;;;5.40;3.23;;;;;;;;;;4527999;28;20518;-63
2022/01/14 04:25:23;;;;;;;5.97;3.78;;;;;;;;;;4527138;28;20021;-64
2022/01/14 04:27:34;;;;;;;5.97;3.70;;;;;;;;;;4527320;28;20041;-63
2022/01/14 04:29:44;;;;;;;6.83;3.90;;;;;;;;;;4529230;28;20033;-63
2022/01/14 04:31:55;;;;;;;5.20;3.63;;;;;;;;;;4529362;28;32927;-63
2022/01/14 04:34:05;;;;;;;6.77;4.23;;;;;;;;;;4527156;28;20065;-62
2022/01/14 04:36:16;;;;;;;8.10;4.80;;;;;;;;;;4528925;28;20029;-63
2022/01/14 04:38:30;;;;;;;7.00;4.23;;;;;;;;;;4528702;28;20327;-63
2022/01/14 04:40:40;;;;;;;5.97;4.03;;;;;;;;;;4530413;28;20022;-63
2022/01/14 04:42:55;;;;;;;5.67;3.70;;;;;;;;;;4527579;28;20044;-63
2022/01/14 04:45:06;;;;;;;5.38;3.83;;;;;;;;;;4529644;28;20038;-63
2022/01/14 04:47:29;;;;;;;;;;;;;;;;;;4529925;28;20026;-63
2022/01/14 04:49:39;;;;;;;8.52;4.88;;;;;;;;;;4528016;28;19927;-63
2022/01/14 04:51:50;;;;;;;11.47;5.50;;;;;;;;;;4527703;28;20043;-63
2022/01/14 04:54:02;;;;;;;11.50;7.20;;;;;;;;;;4527939;28;20953;-63
2022/01/14 04:56:13;;;;;;;15.57;9.55;;;;;;;;;;4529502;28;20587;-63
2022/01/14 04:58:27;;;;;;;13.57;8.30;;;;;;;;;;4528883;28;20049;-63
2022/01/14 05:00:39;;;;;;;12.70;8.02;;;;;;;;;;4536884;28;20048;-63
2022/01/14 05:02:54;;;;;;;12.88;7.47;;;;;;;;;;4529195;28;20615;-63
2022/01/14 05:05:06;;;;;;;12.05;7.25;;;;;;;;;;4531116;28;20145;-63
2022/01/14 05:07:24;;;;;;;10.30;6.43;;;;;;;;;;4529229;28;20025;-63
2022/01/14 05:09:39;;;;;;;14.40;9.55;;;;;;;;;;4528066;28;20037;-63
2022/01/14 05:11:57;;;;;;;12.93;8.45;;;;;;;;;;4530920;28;20604;-63
2022/01/14 05:14:07;;;;;;;15.40;9.40;;;;;;;;;;4529090;28;20040;-63
2022/01/14 05:16:18;;;;;;;15.37;9.90;;;;;;;;;;4528591;28;20037;-63
2022/01/14 05:18:30;;;;;;;12.63;8.37;;;;;;;;;;4531920;28;20045;-63
2022/01/14 05:20:40;;;;;;;14.38;8.98;;;;;;;;;;4529409;28;20059;-63
2022/01/14 05:22:51;;;;;;;12.50;8.70;;;;;;;;;;4528050;28;20054;-63
2022/01/14 05:25:02;;;;;;;13.93;8.67;;;;;;;;;;4528756;28;22495;-63
2022/01/14 05:27:13;;;;;;;12.82;8.57;;;;;;;;;;4527277;28;20704;-63
2022/01/14 05:29:23;;;;;;;12.67;8.50;;;;;;;;;;4528294;28;20036;-64
2022/01/14 05:31:46;;;;;;;12.77;9.03;;;;;;;;;;4529421;28;20497;-63
2022/01/14 05:33:56;;;;;;;13.55;8.75;;;;;;;;;;4527212;28;20025;-63
2022/01/14 05:36:07;;;;;;;10.83;7.40;;;;;;;;;;4527667;28;20037;-63
2022/01/14 05:38:17;;;;;;;12.80;8.33;;;;;;;;;;4543503;28;20021;-63
2022/01/14 05:40:29;;;;;;;11.90;7.90;;;;;;;;;;4528081;28;25622;-63
2022/01/14 05:42:39;;;;;;;12.88;7.80;;;;;;;;;;4527825;28;20033;-63
2022/01/14 05:44:51;;;;;;;12.07;7.87;;;;;;;;;;4526209;28;20033;-63
2022/01/14 05:47:02;;;;;;;13.10;8.73;;;;;;;;;;4526781;28;20686;-64
2022/01/14 05:49:13;;;;;;;12.23;8.02;;;;;;;;;;4527689;28;20099;-63
2022/01/14 05:51:23;;;;;;;12.37;7.70;;;;;;;;;;4536184;28;20689;-63
2022/01/14 05:53:33;;;;;;;11.43;7.53;;;;;;;;;;4529446;28;20041;-63
2022/01/14 05:55:44;;;;;;;12.63;7.87;;;;;;;;;;4527314;28;20398;-63
2022/01/14 05:57:54;;;;;;;13.27;8.80;;;;;;;;;;4527983;28;20037;-63
2022/01/14 06:00:11;;;;;;;12.37;7.93;;;;;;;;;;4529043;28;20037;-63
2022/01/14 06:02:27;;;;;;;11.43;7.95;;;;;;;;;;4530395;28;20642;-63
2022/01/14 06:04:38;;;;;;;10.77;6.80;;;;;;;;;;4526210;28;20047;-63
2022/01/14 06:06:48;;;;;;;11.00;6.70;;;;;;;;;;4528626;28;21578;-63
2022/01/14 06:08:59;;;;;;;8.77;6.20;;;;;;;;;;4526690;28;24764;-63
2022/01/14 06:11:09;;;;;;;8.17;5.77;;;;;;;;;;4528814;28;20052;-63
2022/01/14 06:13:19;;;;;;;8.97;6.00;;;;;;;;;;4527267;28;20965;-63
2022/01/14 06:15:30;;;;;;;9.80;6.20;;;;;;;;;;4526979;28;20038;-64
2022/01/14 06:17:40;;;;;;;9.03;5.23;;;;;;;;;;4527285;28;20049;-63
2022/01/14 06:19:51;;;;;;;7.77;5.03;;;;;;;;;;4526831;28;20037;-63
2022/01/14 06:22:01;;;;;;;7.83;5.30;;;;;;;;;;4526791;28;20034;-63
2022/01/14 06:24:12;;;;;;;7.00;5.00;;;;;;;;;;4512800;28;20117;-66
2022/01/14 06:26:23;;;;;;;5.83;3.67;;;;;;;;;;4529324;28;20028;-63
2022/01/14 06:28:33;;;;;;;6.22;3.83;;;;;;;;;;4543660;28;20041;-63
2022/01/14 06:30:44;;;;;;;5.27;3.83;;;;;;;;;;4527119;28;20029;-63
2022/01/14 06:32:56;;;;;;;4.73;3.53;;;;;;;;;;4526536;28;20029;-63
2022/01/14 06:35:15;;;;;;;4.07;2.88;;;;;;;;;;4528034;28;20821;-63
2022/01/14 06:37:26;;;;;;;5.45;3.35;;;;;;;;;;4528652;28;20071;-63
2022/01/14 06:39:36;;;;;;;5.67;4.10;;;;;;;;;;4527553;28;20064;-63
2022/01/14 06:41:47;;;;;;;4.87;3.27;;;;;;;;;;4527047;28;20307;-62
2022/01/14 06:43:58;;;;;;;5.03;3.50;;;;;;;;;;4526641;28;26841;-63
2022/01/14 06:46:08;;;;;;;5.78;3.80;;;;;;;;;;4536029;28;20542;-63
2022/01/14 06:48:18;;;;;;;5.10;3.63;;;;;;;;;;4528443;28;20454;-63
2022/01/14 06:50:29;;;;;;;6.40;3.97;;;;;;;;;;4530113;28;20075;-62
2022/01/14 06:52:40;;;;;;;5.63;3.70;;;;;;;;;;4527399;28;20037;-63
2022/01/14 06:54:50;;;;;;;13.40;9.10;;;;;;;;;;4512250;28;20407;-64
2022/01/14 06:57:01;;;;;;;12.87;8.50;;;;;;;;;;4525811;28;20083;-63
2022/01/14 06:59:12;;;;;;;10.57;7.03;;;;;;;;;;4529458;28;20124;-63
2022/01/14 07:01:22;;;;;;;10.80;7.00;;;;;;;;;;4530526;28;20117;-64
2022/01/14 07:03:33;;;;;;;8.87;6.30;;;;;;;;;;4532008;28;20790;-64
2022/01/14 07:05:44;;;;;;;6.35;4.45;;;;;;;;;;4528890;28;20598;-63
2022/01/14 07:07:55;;;;;;;11.27;7.30;;;;;;;;;;4530860;28;20037;-63
2022/01/14 07:10:07;;;;;;;11.02;6.82;;;;;;;;;;4531686;28;20037;-63
2022/01/14 07:12:18;;;;;;;9.20;6.05;;;;;;;;;;4511117;28;20040;-63
2022/01/14 07:14:29;;;;;;;9.73;6.23;;;;;;;;;;4528871;28;20036;-63
2022/01/14 07:16:39;;;;;;;7.93;5.57;;;;;;;;;;4530734;28;20041;-63
2022/01/14 07:18:50;;;;;;;10.97;6.73;;;;;;;;;;4529973;28;23741;-62
2022/01/14 07:21:00;;;;;;;9.77;5.67;;;;;;;;;;4529631;28;20044;-63
2022/01/14 07:23:11;;;;;;;10.10;6.23;;;;;;;;;;4513552;28;20053;-63
2022/01/14 07:25:21;;;;;;;9.17;6.00;;;;;;;;;;4528750;28;20143;-63
2022/01/14 07:27:32;;;;;;;8.00;5.57;;;;;;;;;;4528838;28;20072;-63
2022/01/14 07:29:42;;;;;;;8.90;5.60;;;;;;;;;;4529291;28;21513;-64
2022/01/14 07:31:53;;;;;;;10.33;6.77;;;;;;;;;;4530766;28;20520;-63
2022/01/14 07:34:03;;;;;;;10.20;6.97;;;;;;;;;;4529361;28;20171;-63
2022/01/14 07:36:14;;;;;;;7.13;5.20;;;;;;;;;;4528661;28;23005;-65
2022/01/14 07:38:24;;;;;;;7.43;5.43;;;;;;;;;;4529389;28;20045;-63
2022/01/14 07:40:37;;;;;;;8.70;5.50;;;;;;;;;;4530584;28;20033;-63
2022/01/14 07:42:47;;;;;;;11.38;7.35;;;;;;;;;;4528626;28;20022;-63
2022/01/14 07:44:59;;;;;;;11.77;7.77;;;;;;;;;;4530162;28;20033;-63
2022/01/14 07:47:09;;;;;;;7.97;5.72;;;;;;;;;;4527036;28;20036;-63
2022/01/14 07:49:20;;;;;;;7.00;5.43;;;;;;;;;;4529624;28;20060;-63
2022/01/14 07:51:30;;;;;;;8.63;5.57;;;;;;;;;;4528370;28;20037;-63
2022/01/14 07:53:41;;;;;;;7.47;4.73;;;;;;;;;;4528713;28;20898;-63
2022/01/14 07:55:51;;;;;;;9.93;6.63;;;;;;;;;;4520486;28;20025;-63
2022/01/14 07:58:03;;;;;;;10.83;6.77;;;;;;;;;;4536900;28;20056;-64
2022/01/14 08:00:13;;;;;;;10.25;6.60;;;;;;;;;;4515416;28;20096;-63
2022/01/14 08:02:25;;;;;;;9.75;6.32;;;;;;;;;;4529806;28;20504;-63
2022/01/14 08:04:37;;;;;;;9.60;5.70;;;;;;;;;;4529380;28;20064;-63
2022/01/14 08:06:50;;;;;;;;;;;;;;;;;;4529369;28;20033;-63
2022/01/14 08:09:00;;;;;;;10.02;6.28;;;;;;;;;;4530296;28;20205;-63
2022/01/14 08:11:11;;;;;;;9.37;5.80;;;;;;;;;;4529388;28;20446;-63
2022/01/14 08:13:21;;;;;;;9.67;5.93;;;;;;;;;;4528291;28;21526;-62
2022/01/14 08:15:32;;;;;;;6.70;5.00;;;;;;;;;;4526894;28;29373;-63
2022/01/14 08:17:42;;;;;;;8.93;5.00;;;;;;;;;;4527349;28;20088;-63
2022/01/14 08:19:53;;;;;;;8.60;4.80;;;;;;;;;;4527032;28;20791;-63
2022/01/14 08:22:05;;;;;;;10.47;6.53;;;;;;;;;;4528780;28;20133;-62
2022/01/14 08:24:16;;;;;;;9.32;5.72;;;;;;;;;;4529881;28;20053;-63
2022/01/14 08:26:26;;;;;;;10.97;6.30;;;;;;;;;;4527755;28;20525;-63
2022/01/14 08:28:36;;;;;;;9.03;5.37;;;;;;;;;;4528677;28;20489;-62
2022/01/14 08:30:47;;;;;;;8.47;5.00;;;;;;;;;;4529180;28;20037;-65
2022/01/14 08:32:58;;;;;;;5.80;3.50;;;;;;;;;;4526953;28;20087;-63
2022/01/14 08:35:09;;;;;;;11.30;7.10;;;;;;;;;;4529089;28;20870;-62
2022/01/14 08:37:19;;;;;;;8.43;5.18;;;;;;;;;;4527695;28;20776;-62
2022/01/14 08:39:30;;;;;;;8.73;5.03;;;;;;;;;;4526912;28;28233;-62
2022/01/14 08:41:40;;;;;;;11.23;6.93;;;;;;;;;;4528738;28;20132;-63
2022/01/14 08:43:51;;;;;;;7.27;4.73;;;;;;;;;;4528203;28;20024;-64
2022/01/14 08:46:02;;;;;;;7.73;4.50;;;;;;;;;;4528550;28;20086;-63
2022/01/14 08:48:13;;;;;;;8.00;4.63;;;;;;;;;;4529284;28;20128;-61
2022/01/14 08:50:27;;;;;;;8.13;4.80;;;;;;;;;;4527737;28;20045;-61
2022/01/14 08:52:38;;;;;;;7.90;4.90;;;;;;;;;;4524845;28;20092;-62
2022/01/14 08:54:48;;;;;;;8.17;5.00;;;;;;;;;;4513382;28;20117;-63
2022/01/14 08:57:02;;;;;;;8.67;5.60;;;;;;;;;;4530692;28;20091;-63
2022/01/14 08:59:14;;;;;;;8.30;5.38;;;;;;;;;;4527369;28;20128;-63
2022/01/14 09:01:25;;;;;;;9.00;5.70;;;;;;;;;;4528076;28;20065;-62
2022/01/14 09:03:36;;;;;;;8.57;5.17;;;;;;;;;;4528543;28;20148;-65
2022/01/14 09:05:46;;;;;;;8.13;4.95;;;;;;;;;;4524273;28;20033;-64
2022/01/14 09:07:58;;;;;;;9.07;5.40;;;;;;;;;;4527615;28;20036;-64
2022/01/14 09:10:09;;;;;;;8.50;5.47;;;;;;;;;;4535837;28;20028;-64
2022/01/14 09:12:19;;;;;;;8.75;5.53;;;;;;;;;;4527192;28;20037;-64
2022/01/14 09:14:29;;;;;;;8.83;5.50;;;;;;;;;;4525844;28;20042;-65
2022/01/14 09:16:40;;;;;;;9.53;5.30;;;;;;;;;;4526808;28;20080;-64
2022/01/14 09:18:51;;;;;;;11.03;6.60;;;;;;;;;;4527167;28;20052;-64
2022/01/14 09:21:01;;;;;;;10.57;7.07;;;;;;;;;;4526647;28;20037;-64
2022/01/14 09:23:17;;;;;;;9.40;6.50;;;;;;;;;;4524832;28;20501;-64
2022/01/14 09:25:27;;;;;;;11.25;6.63;;;;;;;;;;4527863;28;20040;-66
2022/01/14 09:27:37;;;;;;;11.30;6.93;;;;;;;;;;4527035;28;20041;-64
2022/01/14 09:29:48;;;;;;;10.50;6.20;;;;;;;;;;4528317;28;20034;-63
2022/01/14 09:31:58;;;;;;;10.10;6.57;;;;;;;;;;4527836;28;20029;-64
2022/01/14 09:34:09;;;;;;;11.87;8.53;;;;;;;;;;4527299;28;20025;-62
2022/01/14 09:36:19;;;;;;;11.83;7.03;;;;;;;;;;4525770;28;20071;-62
2022/01/14 09:38:30;;;;;;;10.83;6.47;;;;;;;;;;4526510;28;20065;-62
2022/01/14 09:40:48;;;;;;;9.20;5.85;;;;;;;;;;4526371;28;20029;-62
2022/01/14 09:43:01;;;;;;;11.00;6.45;;;;;;;;;;4527602;28;20040;-62
2022/01/14 09:45:11;;;;;;;9.65;6.13;;;;;;;;;;4526598;28;20041;-65
2022/01/14 09:47:22;;;;;;;11.67;6.87;;;;;;;;;;4525474;28;22888;-64
2022/01/14 09:49:33;;;;;;;10.70;6.53;;;;;;;;;;4535465;28;20041;-64
2022/01/14 09:51:43;;;;;;;11.57;7.32;;;;;;;;;;4527428;28;20555;-65
2022/01/14 09:53:54;;;;;;;13.80;8.37;;;;;;;;;;4524498;28;20029;-63
2022/01/14 09:56:04;;;;;;;12.87;8.23;;;;;;;;;;4525980;28;20126;-64
2022/01/14 09:58:16;;;;;;;12.90;8.18;;;;;;;;;;4525342;28;20152;-64
2022/01/14 10:00:26;;;;;;;13.57;8.90;;;;;;;;;;4525439;28;20610;-63
2022/01/14 10:02:40;;;;;;;7.00;4.00;;;;;;;;;;4524821;28;20472;-63
2022/01/14 10:04:50;;;;;;;6.80;4.30;;;;;;;;;;4521553;28;20112;-63
2022/01/14 10:07:03;;;;;;;6.77;4.30;;;;;;;;;;4525349;28;20039;-64
2022/01/14 10:09:31;;;;;;;7.80;4.18;;;;;;;;;;4524572;28;20045;-63
2022/01/14 10:11:46;;;;;;;6.50;4.60;;;;;;;;;;4524181;28;20029;-64
2022/01/14 10:14:04;;;;;;;7.95;4.60;;;;;;;;;;4507804;28;20041;-63
2022/01/14 10:16:16;;;;;;;6.72;4.05;;;;;;;;;;4525741;28;20032;-60
2022/01/14 10:18:27;;;;;;;8.13;4.50;;;;;;;;;;4514058;28;20035;-59
2022/01/14 10:20:37;;;;;;;8.38;4.55;;;;;;;;;;4524744;28;20041;-60
2022/01/14 10:22:48;;;;;;;6.53;4.60;;;;;;;;;;4523485;28;20038;-60
2022/01/14 10:25:08;;;;;;;8.60;6.07;;;;;;;;;;4523470;28;20750;-59
2022/01/14 10:27:33;;;;;;;8.77;5.13;;;;;;;;;;4525199;28;20030;-58
2022/01/14 10:29:44;;;;;;;9.35;5.55;;;;;;;;;;4526112;28;20037;-57
2022/01/14 10:31:55;;;;;;;28.70;17.05;;;;;;;;;;4525873;28;20497;-58
2022/01/14 10:34:13;;;;;;;14.65;7.72;;;;;;;;;;4524316;28;20128;-59
2022/01/14 10:36:24;;;;;;;13.88;7.53;;;;;;;;;;4525446;28;21212;-58
2022/01/14 10:38:40;;;;;;;27.80;16.20;;;;;;;;;;4526580;28;20041;-61
2022/01/14 10:40:52;;;;;;;15.18;9.10;;;;;;;;;;4528200;28;20667;-61
2022/01/14 10:43:05;;;;;;;16.33;9.25;;;;;;;;;;4526179;28;20040;-62
2022/01/14 10:45:25;;;;;;;16.60;10.07;;;;;;;;;;4525883;28;20037;-62
2022/01/14 10:47:35;;;;;;;18.48;10.23;;;;;;;;;;4534924;28;20032;-62
2022/01/14 10:49:47;;;;;;;15.03;10.33;;;;;;;;;;4527893;28;27575;-62
2022/01/14 10:52:12;;;;;;;15.35;10.35;;;;;;;;;;4529463;28;20041;-62
2022/01/14 10:54:47;;;;;;;19.40;12.55;;;;;;;;;;4527192;28;20033;-62
2022/01/14 10:57:14;;;;;;;11.80;8.02;;;;;;;;;;4523605;28;20761;-66
2022/01/14 10:59:28;;;;;;;19.17;11.63;;;;;;;;;;4526493;28;20132;-66
2022/01/14 11:01:39;;;;;;;19.13;13.32;;;;;;;;;;4524779;28;20060;-65
2022/01/14 11:03:56;;;;;;;21.57;13.03;;;;;;;;;;4526092;28;20041;-65
2022/01/14 11:06:24;;;;;;;20.95;12.70;;;;;;;;;;4526115;28;20033;-65
2022/01/14 11:08:36;;;;;;;17.70;11.77;;;;;;;;;;4522857;28;20030;-64
2022/01/14 11:10:46;;;;;;;12.80;8.60;;;;;;;;;;4526869;28;20059;-64
2022/01/14 11:12:58;;;;;;;11.63;8.33;;;;;;;;;;4524762;28;20124;-64
2022/01/14 11:15:08;;;;;;;;;;;;;;;;;;4528655;28;20025;-65
2022/01/14 11:17:19;;;;;;;20.27;13.40;;;;;;;;;;4528470;28;19974;-65
2022/01/14 11:19:29;;;;;;;11.53;7.80;;;;;;;;;;4525873;28;20099;-64
2022/01/14 11:24:13;;;;;;;12.88;8.55;;;;;;;;;;4526403;28;21041;-59
2022/01/14 11:26:29;;;;;;;11.40;7.90;;;;;;;;;;4518039;28;20033;-61
2022/01/14 11:28:41;;;;;;;13.10;8.25;;;;;;;;;;4526976;28;20042;-61
2022/01/14 11:30:51;;;;;;;19.30;13.77;;;;;;;;;;4522653;28;20724;-62
2022/01/14 11:33:03;;;;;;;20.73;14.50;;;;;;;;;;4535063;28;20033;-61
2022/01/14 11:35:22;;;;;;;21.02;13.40;;;;;;;;;;4523730;28;20029;-61
2022/01/14 11:37:33;;;;;;;22.75;14.70;;;;;;;;;;4526546;28;20040;-61
2022/01/14 11:39:58;;;;;;;24.52;14.82;;;;;;;;;;4526670;28;20086;-61
2022/01/14 11:42:14;;;;;;;25.63;14.85;;;;;;;;;;4528296;28;20084;-61
2022/01/14 11:44:57;;;;;;;23.08;15.45;;;;;;;;;;4527502;28;20095;-63
2022/01/14 11:47:24;;;;;;;21.17;14.63;;;;;;;;;;4528287;28;20033;-63
2022/01/14 11:49:38;;;;;;;20.90;14.48;;;;;;;;;;4530157;28;20056;-62
2022/01/14 11:51:56;;;;;;;11.43;7.50;;;;;;;;;;4532681;28;20484;-63
2022/01/14 11:54:07;;;;;;;11.45;7.45;;;;;;;;;;4543836;28;20045;-62
2022/01/14 11:56:30;;;;;;;11.07;7.53;;;;;;;;;;4525582;28;20076;-63
2022/01/14 11:58:40;;;;;;;11.90;7.55;;;;;;;;;;4528466;28;20082;-63
2022/01/14 12:00:51;;;;;;;10.43;6.70;;;;;;;;;;4528254;28;20025;-63
2022/01/14 12:03:07;;;;;;;11.90;7.93;;;;;;;;;;4531117;28;20029;-64
2022/01/14 12:05:22;;;;;;;11.90;7.75;;;;;;;;;;4527775;28;20159;-64
2022/01/14 12:08:05;;;;;;;40.28;20.52;;;;;;;;;;4529093;28;20029;-64
2022/01/14 12:10:30;;;;;;;41.05;21.42;;;;;;;;;;4529093;28;20040;-64
2022/01/14 12:13:01;;;;;;;12.10;7.63;;;;;;;;;;4528754;28;20041;-69
2022/01/14 12:15:54;;;;;;;13.02;8.52;;;;;;;;;;4472726;28;20323;-67
2022/01/14 12:18:09;;;;;;;55.47;25.48;;;;;;;;;;4490574;28;20634;-68
2022/01/14 12:20:19;;;;;;;52.33;26.55;;;;;;;;;;4474982;28;20050;-65
2022/01/14 12:22:30;;;;;;;17.03;11.17;;;;;;;;;;4475523;28;20066;-63
2022/01/14 12:24:41;;;;;;;10.50;6.80;;;;;;;;;;4476915;28;20138;-63
2022/01/14 12:26:51;;;;;;;;;;;;;;;;;;4490087;28;20046;-63
2022/01/14 12:29:10;;;;;;;10.20;6.70;;;;;;;;;;4490671;28;19953;-63
2022/01/14 12:31:21;;;;;;;21.92;13.18;;;;;;;;;;4489897;28;20049;-63
2022/01/14 12:33:41;;;;;;;45.67;26.03;;;;;;;;;;4491361;28;20502;-63
2022/01/14 12:35:53;;;;;;;10.87;6.87;;;;;;;;;;4490205;28;20039;-63
2022/01/14 12:38:03;;;;;;;10.00;7.15;;;;;;;;;;4488569;28;20041;-63
2022/01/14 12:40:19;;;;;;;44.00;25.07;;;;;;;;;;4489583;28;20065;-64
2022/01/14 12:42:30;;;;;;;9.30;5.78;;;;;;;;;;4459062;28;20049;-63
2022/01/14 12:44:40;;;;;;;10.27;6.13;;;;;;;;;;4489901;28;20104;-63
2022/01/14 12:47:02;;;;;;;9.83;6.17;;;;;;;;;;4491762;28;20046;-62
2022/01/14 12:49:22;;;;;;;10.40;6.30;;;;;;;;;;4488618;28;20081;-62
2022/01/14 12:51:33;;;;;;;10.63;7.15;;;;;;;;;;4493358;28;20658;-62
2022/01/14 12:53:52;;;;;;;11.20;6.63;;;;;;;;;;4529371;28;20137;-63
2022/01/14 12:56:14;;;;;;;9.18;5.97;;;;;;;;;;4526637;28;20319;-62
2022/01/14 12:58:25;;;;;;;9.95;6.38;;;;;;;;;;4528957;28;20580;-62
2022/01/14 13:00:36;;;;;;;10.02;6.53;;;;;;;;;;4527659;28;20064;-63
2022/01/14 13:02:47;;;;;;;9.77;6.32;;;;;;;;;;4528156;28;20037;-63
2022/01/14 13:05:12;;;;;;;10.00;6.47;;;;;;;;;;4529652;28;25142;-64
2022/01/14 13:07:26;;;;;;;10.38;6.68;;;;;;;;;;4528868;28;20601;-64
2022/01/14 13:09:39;;;;;;;9.27;6.40;;;;;;;;;;4526331;28;20831;-63
2022/01/14 13:12:09;;;;;;;9.55;6.47;;;;;;;;;;4527497;28;20110;-64
2022/01/14 13:14:26;;;;;;;10.73;7.47;;;;;;;;;;4527739;28;20152;-64
2022/01/14 13:16:44;;;;;;;10.50;6.95;;;;;;;;;;4529365;28;20642;-63
2022/01/14 13:18:54;;;;;;;9.38;6.53;;;;;;;;;;4526963;28;20115;-65
2022/01/14 13:21:05;;;;;;;10.10;6.73;;;;;;;;;;4526555;28;21169;-64
2022/01/14 13:23:19;;;;;;;10.27;7.20;;;;;;;;;;4526740;28;20482;-64
2022/01/14 13:25:30;;;;;;;9.18;6.13;;;;;;;;;;4527075;28;20043;-64
2022/01/14 13:27:44;;;;;;;9.80;6.53;;;;;;;;;;4528387;28;20040;-64
2022/01/14 13:30:02;;;;;;;9.95;6.57;;;;;;;;;;4528019;28;20033;-64
2022/01/14 13:32:19;;;;;;;20.60;13.27;;;;;;;;;;4526096;28;20052;-64
2022/01/14 13:34:30;;;;;;;32.00;19.45;;;;;;;;;;4528294;28;20036;-64
2022/01/14 13:36:40;;;;;;;11.43;8.10;;;;;;;;;;4525519;28;20087;-63